TFM - Tactical Decision Aid
ID: Runway Winds: CIG/VIS Threshold:

KTPA - Tampa Intl Arpt, FL, US

Updated at: 1858 UTC 19 Aug 2019
Latest TAF at: 1839 UTC 19 Aug 2019

TAF Board

Time1853Z 19/19Z 19/20Z 19/21Z 19/22Z 19/23Z 20/00Z 20/01Z 20/02Z 20/03Z 20/04Z 20/05Z 20/06Z 20/07Z>>
Type OBS PRVL PRVL PRVL PRVL PRVL PRVL PRVL PRVL PRVL PRVL PRVL PRVL PRVL
VIS 10 >6 >6 >6 >6 >6 >6 >6 >6 >6 >6 >6 >6 >6
CIG 230 250 50 50 50 50 50 50 50 50 50 250 250 250
Cover OVC BKN BKN BKN BKN BKN BKN BKN BKN BKN BKN BKN BKN BKN
FltCat VFR VFR VFR VFR VFR VFR VFR VFR VFR VFR VFR VFR VFR VFR
WX -- VCTS VCTS VCTS VCTS VCTS VCTS -- -- -- -- -- -- --
WDir 240 230 310 310 310 310 310 10 10 10 10 VRB VRB VRB
WSpd 8 6 7 7 7 7 7 6 6 6 6 3 3 3
WGst -- -- -- -- -- -- -- -- -- -- -- -- -- --

TDA Impact Legend

  None Marginal Slight Moderate High
Visibility (sm) >5 3≤X≤5 1≤X<3 0.5≤X<1 <0.5
Ceiling (100 ft) >30 10≤X≤30 4≤X<10 2≤X<4 <2
Wind Speed (kt) <15 15≤X<25 25≤X<30 ≥30
Wind Gust (kt) <15 15≤X<25 25≤X<35 ≥35
Weather No Wx Reported VCTS -TS,-FZRA TS,FZRA +TS,+FZRA
TAF
KTPA 191839Z 1919/2024 23006KT P6SM VCTS SCT040CB BKN250
  FM192000 31007KT P6SM VCTS BKN050CB BKN250
  FM200100 01006KT P6SM BKN050 BKN250
  FM200500 VRB03KT P6SM BKN250
  FM201400 12005KT P6SM SCT030 BKN250
  FM201900 22006KT P6SM VCTS SCT045CB BKN250


METAR
KTPA 191853Z 24008KT 10SM SCT045CB OVC230 32/24 A3006 RMK AO2 LTG DSNT E AND SE SLP179 CB SE-S MOV NW T03220239
KTPA 191753Z VRB03KT 10SM FEW040 BKN230 32/22 A3010 RMK AO2 SLP191 T03220217 10333 20256 58006
KTPA 191653Z VRB05KT 10SM FEW040 BKN230 32/22 A3010 RMK AO2 SLP193 T03220222
KTPA 191553Z 08003KT 10SM FEW150 OVC230 30/23 A3011 RMK AO2 SLP197 T03000228 $

Radar Display
Forecast Discussion